Terminal Aerodrome Forecast
Issued by NWS King Salmon, AK

Home | Current Version | Previous Version | Text Only | Print | Product List | Glossary On
Versions: 1 2 3 4 5 6 7 8 9 10 11 12
000
FTAK31 PANC 261731
TAFAKN
TAF
PAKN 261731Z 2618/2718 VRB05KT P6SM SCT070 BKN100
     FM270100 27012KT P6SM -SHRA BKN050 OVC080
     FM270800 22010KT P6SM VCSH BKN060 OVC100=

USA.gov is the U.S. government's official web portal to all federal, state and local government web resources and services.